sensor_id;sensor_type;location;lat;lon;timestamp;P1;durP1;ratioP1;P2;durP2;ratioP2
71475;SDS011;59286;59.274;17.974;2022-08-25T00:01:27;2.08;;;1.08;;
71475;SDS011;59286;59.274;17.974;2022-08-25T00:03:55;3.17;;;1.08;;
71475;SDS011;59286;59.274;17.974;2022-08-25T00:06:21;3.38;;;1.13;;
71475;SDS011;59286;59.274;17.974;2022-08-25T00:08:47;2.85;;;1.08;;
71475;SDS011;59286;59.274;17.974;2022-08-25T00:11:14;4.22;;;1.30;;
71475;SDS011;59286;59.274;17.974;2022-08-25T00:13:42;3.65;;;1.00;;
71475;SDS011;59286;59.274;17.974;2022-08-25T00:16:10;1.27;;;1.15;;
71475;SDS011;59286;59.274;17.974;2022-08-25T00:18:37;1.48;;;1.10;;
71475;SDS011;59286;59.274;17.974;2022-08-25T00:21:04;2.05;;;1.00;;
71475;SDS011;59286;59.274;17.974;2022-08-25T00:23:30;2.40;;;1.33;;
71475;SDS011;59286;59.274;17.974;2022-08-25T00:25:56;2.05;;;1.10;;
71475;SDS011;59286;59.274;17.974;2022-08-25T00:28:22;2.65;;;1.30;;
71475;SDS011;59286;59.274;17.974;2022-08-25T00:30:48;2.20;;;1.15;;
71475;SDS011;59286;59.274;17.974;2022-08-25T00:33:15;1.65;;;1.15;;
71475;SDS011;59286;59.274;17.974;2022-08-25T00:35:41;1.63;;;1.10;;
71475;SDS011;59286;59.274;17.974;2022-08-25T00:38:08;1.25;;;0.90;;
71475;SDS011;59286;59.274;17.974;2022-08-25T00:40:34;1.35;;;1.05;;
71475;SDS011;59286;59.274;17.974;2022-08-25T00:43:01;2.33;;;1.20;;
71475;SDS011;59286;59.274;17.974;2022-08-25T00:45:26;4.50;;;1.55;;
71475;SDS011;59286;59.274;17.974;2022-08-25T00:47:52;4.72;;;1.02;;
71475;SDS011;59286;59.274;17.974;2022-08-25T00:50:18;1.50;;;0.98;;
71475;SDS011;59286;59.274;17.974;2022-08-25T00:52:48;0.85;;;0.80;;
71475;SDS011;59286;59.274;17.974;2022-08-25T00:55:28;2.25;;;1.00;;
71475;SDS011;59286;59.274;17.974;2022-08-25T01:00:59;2.13;;;1.00;;
71475;SDS011;59286;59.274;17.974;2022-08-25T01:03:26;1.23;;;0.90;;
71475;SDS011;59286;59.274;17.974;2022-08-25T01:05:53;1.75;;;1.00;;
71475;SDS011;59286;59.274;17.974;2022-08-25T01:08:21;2.70;;;0.90;;
71475;SDS011;59286;59.274;17.974;2022-08-25T01:10:51;1.25;;;0.82;;
71475;SDS011;59286;59.274;17.974;2022-08-25T01:13:21;1.35;;;0.80;;
71475;SDS011;59286;59.274;17.974;2022-08-25T01:15:53;1.27;;;0.70;;
71475;SDS011;59286;59.274;17.974;2022-08-25T01:18:21;3.15;;;1.00;;
71475;SDS011;59286;59.274;17.974;2022-08-25T01:20:48;3.70;;;1.30;;
71475;SDS011;59286;59.274;17.974;2022-08-25T01:23:14;1.33;;;0.93;;
71475;SDS011;59286;59.274;17.974;2022-08-25T01:28:37;2.95;;;1.00;;
71475;SDS011;59286;59.274;17.974;2022-08-25T01:31:25;1.05;;;0.90;;
71475;SDS011;59286;59.274;17.974;2022-08-25T01:33:51;0.90;;;0.80;;
71475;SDS011;59286;59.274;17.974;2022-08-25T01:36:17;0.95;;;0.80;;
71475;SDS011;59286;59.274;17.974;2022-08-25T01:38:43;0.80;;;0.80;;
71475;SDS011;59286;59.274;17.974;2022-08-25T01:41:09;2.20;;;0.90;;
71475;SDS011;59286;59.274;17.974;2022-08-25T01:43:35;3.35;;;0.90;;
71475;SDS011;59286;59.274;17.974;2022-08-25T01:46:02;3.08;;;0.90;;
71475;SDS011;59286;59.274;17.974;2022-08-25T01:48:28;0.95;;;0.70;;
71475;SDS011;59286;59.274;17.974;2022-08-25T01:50:53;1.30;;;0.82;;
71475;SDS011;59286;59.274;17.974;2022-08-25T01:53:26;2.50;;;1.02;;
71475;SDS011;59286;59.274;17.974;2022-08-25T01:55:53;1.50;;;1.00;;
71475;SDS011;59286;59.274;17.974;2022-08-25T01:58:33;2.45;;;1.00;;
71475;SDS011;59286;59.274;17.974;2022-08-25T02:01:02;1.17;;;1.02;;
71475;SDS011;59286;59.274;17.974;2022-08-25T02:03:35;0.82;;;0.70;;
71475;SDS011;59286;59.274;17.974;2022-08-25T02:06:03;1.30;;;0.88;;
71475;SDS011;59286;59.274;17.974;2022-08-25T02:08:29;2.60;;;1.02;;
71475;SDS011;59286;59.274;17.974;2022-08-25T02:10:55;1.70;;;1.00;;
71475;SDS011;59286;59.274;17.974;2022-08-25T02:13:21;0.75;;;0.75;;
71475;SDS011;59286;59.274;17.974;2022-08-25T02:15:48;2.95;;;0.93;;
71475;SDS011;59286;59.274;17.974;2022-08-25T02:18:17;0.80;;;0.80;;
71475;SDS011;59286;59.274;17.974;2022-08-25T02:20:44;2.90;;;1.15;;
71475;SDS011;59286;59.274;17.974;2022-08-25T02:23:10;1.70;;;0.88;;
71475;SDS011;59286;59.274;17.974;2022-08-25T02:25:36;1.92;;;0.98;;
71475;SDS011;59286;59.274;17.974;2022-08-25T02:28:04;1.13;;;0.98;;
71475;SDS011;59286;59.274;17.974;2022-08-25T02:30:31;2.83;;;0.85;;
71475;SDS011;59286;59.274;17.974;2022-08-25T02:32:56;2.13;;;0.90;;
71475;SDS011;59286;59.274;17.974;2022-08-25T02:35:22;1.85;;;1.13;;
71475;SDS011;59286;59.274;17.974;2022-08-25T02:37:49;1.27;;;0.85;;
71475;SDS011;59286;59.274;17.974;2022-08-25T02:40:15;1.95;;;0.90;;
71475;SDS011;59286;59.274;17.974;2022-08-25T02:42:41;0.88;;;0.80;;
71475;SDS011;59286;59.274;17.974;2022-08-25T02:45:07;2.40;;;0.93;;
71475;SDS011;59286;59.274;17.974;2022-08-25T02:47:33;2.55;;;1.00;;
71475;SDS011;59286;59.274;17.974;2022-08-25T02:50:00;1.17;;;1.08;;
71475;SDS011;59286;59.274;17.974;2022-08-25T02:52:26;1.00;;;0.90;;
71475;SDS011;59286;59.274;17.974;2022-08-25T02:54:51;1.48;;;1.30;;
71475;SDS011;59286;59.274;17.974;2022-08-25T02:57:16;1.75;;;1.27;;
71475;SDS011;59286;59.274;17.974;2022-08-25T02:59:42;1.55;;;1.00;;
71475;SDS011;59286;59.274;17.974;2022-08-25T03:02:12;3.72;;;1.17;;
71475;SDS011;59286;59.274;17.974;2022-08-25T03:04:37;2.30;;;1.00;;
71475;SDS011;59286;59.274;17.974;2022-08-25T03:07:03;2.83;;;1.10;;
71475;SDS011;59286;59.274;17.974;2022-08-25T03:09:29;1.10;;;1.00;;
71475;SDS011;59286;59.274;17.974;2022-08-25T03:11:54;2.35;;;0.80;;
71475;SDS011;59286;59.274;17.974;2022-08-25T03:14:20;2.00;;;1.08;;
71475;SDS011;59286;59.274;17.974;2022-08-25T03:16:45;0.90;;;0.90;;
71475;SDS011;59286;59.274;17.974;2022-08-25T03:19:11;2.60;;;1.20;;
71475;SDS011;59286;59.274;17.974;2022-08-25T03:21:36;1.35;;;0.90;;
71475;SDS011;59286;59.274;17.974;2022-08-25T03:24:03;1.83;;;1.00;;
71475;SDS011;59286;59.274;17.974;2022-08-25T03:26:29;1.40;;;1.30;;
71475;SDS011;59286;59.274;17.974;2022-08-25T03:29:13;0.98;;;0.80;;
71475;SDS011;59286;59.274;17.974;2022-08-25T03:31:39;1.20;;;1.10;;
71475;SDS011;59286;59.274;17.974;2022-08-25T03:34:07;1.90;;;1.33;;
71475;SDS011;59286;59.274;17.974;2022-08-25T03:36:33;3.55;;;1.00;;
71475;SDS011;59286;59.274;17.974;2022-08-25T03:38:59;1.40;;;1.10;;
71475;SDS011;59286;59.274;17.974;2022-08-25T03:41:26;0.98;;;0.73;;
71475;SDS011;59286;59.274;17.974;2022-08-25T03:43:53;1.77;;;1.00;;
71475;SDS011;59286;59.274;17.974;2022-08-25T03:46:23;1.10;;;1.00;;
71475;SDS011;59286;59.274;17.974;2022-08-25T03:48:51;1.63;;;1.20;;
71475;SDS011;59286;59.274;17.974;2022-08-25T03:53:50;1.73;;;1.02;;
71475;SDS011;59286;59.274;17.974;2022-08-25T03:56:16;1.75;;;1.00;;
71475;SDS011;59286;59.274;17.974;2022-08-25T03:58:42;1.10;;;1.00;;
71475;SDS011;59286;59.274;17.974;2022-08-25T04:01:08;2.28;;;1.20;;
71475;SDS011;59286;59.274;17.974;2022-08-25T04:03:34;2.15;;;0.88;;
71475;SDS011;59286;59.274;17.974;2022-08-25T04:06:00;2.35;;;1.17;;
71475;SDS011;59286;59.274;17.974;2022-08-25T04:08:27;1.23;;;1.10;;
71475;SDS011;59286;59.274;17.974;2022-08-25T04:10:52;2.03;;;1.00;;
71475;SDS011;59286;59.274;17.974;2022-08-25T04:13:18;1.73;;;1.20;;
71475;SDS011;59286;59.274;17.974;2022-08-25T04:16:02;2.15;;;0.98;;
71475;SDS011;59286;59.274;17.974;2022-08-25T04:19:00;2.80;;;1.10;;
71475;SDS011;59286;59.274;17.974;2022-08-25T04:21:28;2.88;;;1.10;;
71475;SDS011;59286;59.274;17.974;2022-08-25T04:23:54;2.63;;;1.10;;
71475;SDS011;59286;59.274;17.974;2022-08-25T04:26:22;1.98;;;1.02;;
71475;SDS011;59286;59.274;17.974;2022-08-25T04:28:59;1.98;;;1.33;;
71475;SDS011;59286;59.274;17.974;2022-08-25T04:31:25;2.97;;;1.30;;
71475;SDS011;59286;59.274;17.974;2022-08-25T04:33:52;2.47;;;1.27;;
71475;SDS011;59286;59.274;17.974;2022-08-25T04:36:18;1.73;;;1.52;;
71475;SDS011;59286;59.274;17.974;2022-08-25T04:38:44;2.55;;;1.40;;
71475;SDS011;59286;59.274;17.974;2022-08-25T04:41:12;1.90;;;1.23;;
71475;SDS011;59286;59.274;17.974;2022-08-25T04:43:39;2.90;;;1.70;;
71475;SDS011;59286;59.274;17.974;2022-08-25T04:46:10;6.22;;;1.83;;
71475;SDS011;59286;59.274;17.974;2022-08-25T04:48:37;3.50;;;1.60;;
71475;SDS011;59286;59.274;17.974;2022-08-25T04:51:14;5.47;;;2.30;;
71475;SDS011;59286;59.274;17.974;2022-08-25T04:53:41;6.13;;;2.17;;
71475;SDS011;59286;59.274;17.974;2022-08-25T04:56:08;4.63;;;2.60;;
71475;SDS011;59286;59.274;17.974;2022-08-25T04:58:35;4.43;;;2.22;;
71475;SDS011;59286;59.274;17.974;2022-08-25T05:01:04;4.35;;;2.00;;
71475;SDS011;59286;59.274;17.974;2022-08-25T05:03:41;5.40;;;1.80;;
71475;SDS011;59286;59.274;17.974;2022-08-25T05:06:07;4.90;;;1.90;;
71475;SDS011;59286;59.274;17.974;2022-08-25T05:08:33;4.05;;;1.77;;
71475;SDS011;59286;59.274;17.974;2022-08-25T05:11:10;5.72;;;2.03;;
71475;SDS011;59286;59.274;17.974;2022-08-25T05:13:38;2.63;;;1.70;;
71475;SDS011;59286;59.274;17.974;2022-08-25T05:16:04;6.40;;;2.05;;
71475;SDS011;59286;59.274;17.974;2022-08-25T05:18:31;6.70;;;1.88;;
71475;SDS011;59286;59.274;17.974;2022-08-25T05:21:01;6.65;;;2.20;;
71475;SDS011;59286;59.274;17.974;2022-08-25T05:23:29;7.13;;;2.15;;
71475;SDS011;59286;59.274;17.974;2022-08-25T05:25:56;3.35;;;2.15;;
71475;SDS011;59286;59.274;17.974;2022-08-25T05:28:30;6.28;;;2.17;;
71475;SDS011;59286;59.274;17.974;2022-08-25T05:30:59;6.15;;;1.70;;
71475;SDS011;59286;59.274;17.974;2022-08-25T05:33:27;5.45;;;2.03;;
71475;SDS011;59286;59.274;17.974;2022-08-25T05:35:53;5.30;;;2.25;;
71475;SDS011;59286;59.274;17.974;2022-08-25T05:38:19;8.35;;;1.80;;
71475;SDS011;59286;59.274;17.974;2022-08-25T05:40:45;5.50;;;1.90;;
71475;SDS011;59286;59.274;17.974;2022-08-25T05:43:10;6.95;;;1.80;;
71475;SDS011;59286;59.274;17.974;2022-08-25T05:45:36;7.35;;;2.10;;
71475;SDS011;59286;59.274;17.974;2022-08-25T05:48:03;7.78;;;1.67;;
71475;SDS011;59286;59.274;17.974;2022-08-25T05:50:28;4.43;;;1.60;;
71475;SDS011;59286;59.274;17.974;2022-08-25T05:52:54;6.63;;;1.60;;
71475;SDS011;59286;59.274;17.974;2022-08-25T05:55:19;5.38;;;1.50;;
71475;SDS011;59286;59.274;17.974;2022-08-25T05:57:45;10.88;;;2.05;;
71475;SDS011;59286;59.274;17.974;2022-08-25T06:00:11;8.27;;;1.60;;
71475;SDS011;59286;59.274;17.974;2022-08-25T06:02:37;10.95;;;2.03;;
71475;SDS011;59286;59.274;17.974;2022-08-25T06:05:08;7.30;;;1.65;;
71475;SDS011;59286;59.274;17.974;2022-08-25T06:07:36;7.97;;;2.20;;
71475;SDS011;59286;59.274;17.974;2022-08-25T06:10:02;5.70;;;1.88;;
71475;SDS011;59286;59.274;17.974;2022-08-25T06:12:31;7.65;;;1.90;;
71475;SDS011;59286;59.274;17.974;2022-08-25T06:14:57;6.30;;;1.52;;
71475;SDS011;59286;59.274;17.974;2022-08-25T06:17:23;10.70;;;1.55;;
71475;SDS011;59286;59.274;17.974;2022-08-25T06:19:48;8.73;;;1.60;;
71475;SDS011;59286;59.274;17.974;2022-08-25T06:22:13;6.70;;;1.77;;
71475;SDS011;59286;59.274;17.974;2022-08-25T06:24:39;6.47;;;1.60;;
71475;SDS011;59286;59.274;17.974;2022-08-25T06:27:04;9.90;;;1.50;;
71475;SDS011;59286;59.274;17.974;2022-08-25T06:29:30;6.78;;;1.40;;
71475;SDS011;59286;59.274;17.974;2022-08-25T06:31:56;5.05;;;1.63;;
71475;SDS011;59286;59.274;17.974;2022-08-25T06:34:21;5.32;;;1.20;;
71475;SDS011;59286;59.274;17.974;2022-08-25T06:36:47;6.75;;;1.42;;
71475;SDS011;59286;59.274;17.974;2022-08-25T06:39:14;7.40;;;1.17;;
71475;SDS011;59286;59.274;17.974;2022-08-25T06:41:40;3.10;;;1.00;;
71475;SDS011;59286;59.274;17.974;2022-08-25T06:44:05;6.40;;;1.10;;
71475;SDS011;59286;59.274;17.974;2022-08-25T06:46:31;9.13;;;1.08;;
71475;SDS011;59286;59.274;17.974;2022-08-25T06:48:56;9.07;;;1.13;;
71475;SDS011;59286;59.274;17.974;2022-08-25T06:51:23;4.13;;;0.73;;
71475;SDS011;59286;59.274;17.974;2022-08-25T06:53:50;4.68;;;0.88;;
71475;SDS011;59286;59.274;17.974;2022-08-25T06:56:17;3.97;;;1.17;;
71475;SDS011;59286;59.274;17.974;2022-08-25T06:58:43;1.60;;;0.80;;
71475;SDS011;59286;59.274;17.974;2022-08-25T07:01:09;3.15;;;1.58;;
71475;SDS011;59286;59.274;17.974;2022-08-25T07:03:36;3.83;;;1.00;;
71475;SDS011;59286;59.274;17.974;2022-08-25T07:06:02;2.33;;;0.82;;
71475;SDS011;59286;59.274;17.974;2022-08-25T07:08:29;3.38;;;0.82;;
71475;SDS011;59286;59.274;17.974;2022-08-25T07:10:55;2.97;;;1.10;;
71475;SDS011;59286;59.274;17.974;2022-08-25T07:13:21;4.38;;;1.20;;
71475;SDS011;59286;59.274;17.974;2022-08-25T07:15:46;1.77;;;0.70;;
71475;SDS011;59286;59.274;17.974;2022-08-25T07:18:17;1.75;;;0.80;;
71475;SDS011;59286;59.274;17.974;2022-08-25T07:20:42;4.03;;;1.00;;
71475;SDS011;59286;59.274;17.974;2022-08-25T07:23:07;2.92;;;0.82;;
71475;SDS011;59286;59.274;17.974;2022-08-25T07:25:34;4.75;;;1.10;;
71475;SDS011;59286;59.274;17.974;2022-08-25T07:28:00;3.60;;;0.80;;
71475;SDS011;59286;59.274;17.974;2022-08-25T07:30:26;7.45;;;1.00;;
71475;SDS011;59286;59.274;17.974;2022-08-25T07:32:52;3.20;;;0.80;;
71475;SDS011;59286;59.274;17.974;2022-08-25T07:35:17;2.38;;;0.70;;
71475;SDS011;59286;59.274;17.974;2022-08-25T07:37:46;5.47;;;0.73;;
71475;SDS011;59286;59.274;17.974;2022-08-25T07:40:14;4.97;;;0.90;;
71475;SDS011;59286;59.274;17.974;2022-08-25T07:42:42;1.65;;;0.70;;
71475;SDS011;59286;59.274;17.974;2022-08-25T07:45:08;3.33;;;0.65;;
71475;SDS011;59286;59.274;17.974;2022-08-25T07:47:35;2.17;;;0.90;;
71475;SDS011;59286;59.274;17.974;2022-08-25T07:50:02;1.58;;;0.75;;
71475;SDS011;59286;59.274;17.974;2022-08-25T07:52:27;1.50;;;0.80;;
71475;SDS011;59286;59.274;17.974;2022-08-25T07:54:54;4.25;;;0.88;;
71475;SDS011;59286;59.274;17.974;2022-08-25T07:57:19;4.18;;;0.70;;
71475;SDS011;59286;59.274;17.974;2022-08-25T07:59:46;2.88;;;0.70;;
71475;SDS011;59286;59.274;17.974;2022-08-25T08:02:12;2.53;;;0.80;;
71475;SDS011;59286;59.274;17.974;2022-08-25T08:04:38;2.08;;;0.60;;
71475;SDS011;59286;59.274;17.974;2022-08-25T08:07:04;4.43;;;0.90;;
71475;SDS011;59286;59.274;17.974;2022-08-25T08:09:30;3.15;;;0.50;;
71475;SDS011;59286;59.274;17.974;2022-08-25T08:11:56;1.75;;;0.63;;
71475;SDS011;59286;59.274;17.974;2022-08-25T08:14:23;4.00;;;0.80;;
71475;SDS011;59286;59.274;17.974;2022-08-25T08:16:48;1.38;;;0.50;;
71475;SDS011;59286;59.274;17.974;2022-08-25T08:19:17;2.67;;;0.47;;
71475;SDS011;59286;59.274;17.974;2022-08-25T08:21:42;1.65;;;0.40;;
71475;SDS011;59286;59.274;17.974;2022-08-25T08:24:08;1.10;;;0.50;;
71475;SDS011;59286;59.274;17.974;2022-08-25T08:26:33;3.22;;;0.50;;
71475;SDS011;59286;59.274;17.974;2022-08-25T08:28:59;1.63;;;0.47;;
71475;SDS011;59286;59.274;17.974;2022-08-25T08:31:25;3.80;;;0.50;;
71475;SDS011;59286;59.274;17.974;2022-08-25T08:33:52;3.40;;;0.50;;
71475;SDS011;59286;59.274;17.974;2022-08-25T08:36:19;0.90;;;0.40;;
71475;SDS011;59286;59.274;17.974;2022-08-25T08:38:46;1.15;;;0.43;;
71475;SDS011;59286;59.274;17.974;2022-08-25T08:47:10;0.85;;;0.50;;
71475;SDS011;59286;59.274;17.974;2022-08-25T08:49:45;2.53;;;0.57;;
71475;SDS011;59286;59.274;17.974;2022-08-25T08:52:28;1.17;;;0.40;;
71475;SDS011;59286;59.274;17.974;2022-08-25T08:54:57;3.97;;;0.50;;
71475;SDS011;59286;59.274;17.974;2022-08-25T08:57:29;1.58;;;0.40;;
71475;SDS011;59286;59.274;17.974;2022-08-25T09:00:03;1.42;;;0.60;;
71475;SDS011;59286;59.274;17.974;2022-08-25T09:02:37;1.42;;;0.43;;
71475;SDS011;59286;59.274;17.974;2022-08-25T09:05:10;1.58;;;0.57;;
71475;SDS011;59286;59.274;17.974;2022-08-25T09:07:44;3.58;;;0.63;;
71475;SDS011;59286;59.274;17.974;2022-08-25T09:10:13;2.78;;;0.45;;
71475;SDS011;59286;59.274;17.974;2022-08-25T09:13:15;2.97;;;0.45;;
71475;SDS011;59286;59.274;17.974;2022-08-25T09:15:44;2.85;;;0.50;;
71475;SDS011;59286;59.274;17.974;2022-08-25T09:21:45;0.93;;;0.40;;
71475;SDS011;59286;59.274;17.974;2022-08-25T09:29:58;1.92;;;0.40;;
71475;SDS011;59286;59.274;17.974;2022-08-25T09:32:27;1.23;;;0.30;;
71475;SDS011;59286;59.274;17.974;2022-08-25T09:34:56;3.30;;;0.50;;
71475;SDS011;59286;59.274;17.974;2022-08-25T09:37:23;3.22;;;0.45;;
71475;SDS011;59286;59.274;17.974;2022-08-25T09:39:48;1.50;;;0.50;;
71475;SDS011;59286;59.274;17.974;2022-08-25T09:42:14;1.10;;;0.40;;
71475;SDS011;59286;59.274;17.974;2022-08-25T09:44:45;2.80;;;0.52;;
71475;SDS011;59286;59.274;17.974;2022-08-25T09:47:14;1.20;;;0.30;;
71475;SDS011;59286;59.274;17.974;2022-08-25T09:54:50;3.42;;;0.55;;
71475;SDS011;59286;59.274;17.974;2022-08-25T10:00:28;2.45;;;0.50;;
71475;SDS011;59286;59.274;17.974;2022-08-25T10:03:18;1.77;;;0.30;;
71475;SDS011;59286;59.274;17.974;2022-08-25T10:08:30;1.05;;;0.30;;
71475;SDS011;59286;59.274;17.974;2022-08-25T10:14:17;2.65;;;0.30;;
71475;SDS011;59286;59.274;17.974;2022-08-25T10:17:23;2.42;;;0.60;;
71475;SDS011;59286;59.274;17.974;2022-08-25T10:19:52;0.55;;;0.40;;
71475;SDS011;59286;59.274;17.974;2022-08-25T10:22:20;2.50;;;0.43;;
71475;SDS011;59286;59.274;17.974;2022-08-25T10:24:48;0.75;;;0.30;;
71475;SDS011;59286;59.274;17.974;2022-08-25T10:34:53;2.92;;;0.50;;
71475;SDS011;59286;59.274;17.974;2022-08-25T10:40:13;1.85;;;0.30;;
71475;SDS011;59286;59.274;17.974;2022-08-25T10:43:04;2.60;;;0.60;;
71475;SDS011;59286;59.274;17.974;2022-08-25T10:45:33;3.78;;;0.63;;
71475;SDS011;59286;59.274;17.974;2022-08-25T10:50:54;1.13;;;0.40;;
71475;SDS011;59286;59.274;17.974;2022-08-25T10:56:37;3.90;;;0.70;;
71475;SDS011;59286;59.274;17.974;2022-08-25T11:16:00;1.33;;;0.40;;
71475;SDS011;59286;59.274;17.974;2022-08-25T11:18:30;2.55;;;0.38;;
71475;SDS011;59286;59.274;17.974;2022-08-25T11:21:08;1.35;;;0.40;;
71475;SDS011;59286;59.274;17.974;2022-08-25T11:23:49;2.08;;;0.60;;
71475;SDS011;59286;59.274;17.974;2022-08-25T11:26:27;1.10;;;0.50;;
71475;SDS011;59286;59.274;17.974;2022-08-25T11:29:03;3.00;;;0.57;;
71475;SDS011;59286;59.274;17.974;2022-08-25T11:31:37;3.25;;;0.38;;
71475;SDS011;59286;59.274;17.974;2022-08-25T11:34:10;2.05;;;0.47;;
71475;SDS011;59286;59.274;17.974;2022-08-25T11:39:27;3.90;;;0.47;;
71475;SDS011;59286;59.274;17.974;2022-08-25T11:44:46;1.38;;;0.40;;
71475;SDS011;59286;59.274;17.974;2022-08-25T11:47:40;1.60;;;0.40;;
71475;SDS011;59286;59.274;17.974;2022-08-25T11:50:58;2.50;;;0.60;;
71475;SDS011;59286;59.274;17.974;2022-08-25T11:53:39;1.25;;;0.50;;
71475;SDS011;59286;59.274;17.974;2022-08-25T11:56:10;3.10;;;0.50;;
71475;SDS011;59286;59.274;17.974;2022-08-25T11:58:55;0.82;;;0.52;;
71475;SDS011;59286;59.274;17.974;2022-08-25T12:09:29;2.22;;;0.60;;
71475;SDS011;59286;59.274;17.974;2022-08-25T12:11:55;3.47;;;0.60;;
71475;SDS011;59286;59.274;17.974;2022-08-25T12:21:47;2.00;;;0.40;;
71475;SDS011;59286;59.274;17.974;2022-08-25T12:24:12;1.05;;;0.40;;
71475;SDS011;59286;59.274;17.974;2022-08-25T12:26:44;1.60;;;0.38;;
71475;SDS011;59286;59.274;17.974;2022-08-25T12:29:24;1.08;;;0.52;;
71475;SDS011;59286;59.274;17.974;2022-08-25T12:37:12;1.33;;;0.40;;
71475;SDS011;59286;59.274;17.974;2022-08-25T12:47:48;1.30;;;0.40;;
71475;SDS011;59286;59.274;17.974;2022-08-25T12:53:05;1.85;;;0.50;;
71475;SDS011;59286;59.274;17.974;2022-08-25T12:55:42;0.80;;;0.30;;
71475;SDS011;59286;59.274;17.974;2022-08-25T12:58:13;3.50;;;0.57;;
71475;SDS011;59286;59.274;17.974;2022-08-25T13:14:32;2.30;;;0.43;;
71475;SDS011;59286;59.274;17.974;2022-08-25T13:17:05;0.85;;;0.40;;
71475;SDS011;59286;59.274;17.974;2022-08-25T13:19:31;1.00;;;0.35;;
71475;SDS011;59286;59.274;17.974;2022-08-25T13:21:57;2.97;;;0.30;;
71475;SDS011;59286;59.274;17.974;2022-08-25T13:24:25;4.25;;;0.50;;
71475;SDS011;59286;59.274;17.974;2022-08-25T13:27:01;0.93;;;0.30;;
71475;SDS011;59286;59.274;17.974;2022-08-25T13:29:30;1.05;;;0.35;;
71475;SDS011;59286;59.274;17.974;2022-08-25T13:31:59;1.42;;;0.40;;
71475;SDS011;59286;59.274;17.974;2022-08-25T13:34:31;1.88;;;0.50;;
71475;SDS011;59286;59.274;17.974;2022-08-25T13:37:09;1.52;;;0.60;;
71475;SDS011;59286;59.274;17.974;2022-08-25T13:40:09;3.28;;;0.50;;
71475;SDS011;59286;59.274;17.974;2022-08-25T13:42:37;0.88;;;0.38;;
71475;SDS011;59286;59.274;17.974;2022-08-25T13:45:04;2.50;;;0.52;;
71475;SDS011;59286;59.274;17.974;2022-08-25T13:47:32;1.42;;;0.57;;
71475;SDS011;59286;59.274;17.974;2022-08-25T13:50:35;1.17;;;0.30;;
71475;SDS011;59286;59.274;17.974;2022-08-25T13:55:21;2.13;;;0.45;;
71475;SDS011;59286;59.274;17.974;2022-08-25T13:57:50;5.50;;;0.60;;
71475;SDS011;59286;59.274;17.974;2022-08-25T14:00:27;3.35;;;0.57;;
71475;SDS011;59286;59.274;17.974;2022-08-25T14:02:56;0.93;;;0.40;;
71475;SDS011;59286;59.274;17.974;2022-08-25T14:05:34;0.70;;;0.40;;
71475;SDS011;59286;59.274;17.974;2022-08-25T14:08:04;1.85;;;0.60;;
71475;SDS011;59286;59.274;17.974;2022-08-25T14:10:52;0.40;;;0.40;;
71475;SDS011;59286;59.274;17.974;2022-08-25T14:13:30;1.20;;;0.40;;
71475;SDS011;59286;59.274;17.974;2022-08-25T14:16:05;1.80;;;0.60;;
71475;SDS011;59286;59.274;17.974;2022-08-25T14:18:38;2.08;;;0.52;;
71475;SDS011;59286;59.274;17.974;2022-08-25T14:21:13;3.63;;;0.50;;
71475;SDS011;59286;59.274;17.974;2022-08-25T14:23:39;1.13;;;0.50;;
71475;SDS011;59286;59.274;17.974;2022-08-25T14:26:06;0.93;;;0.45;;
71475;SDS011;59286;59.274;17.974;2022-08-25T14:28:31;0.98;;;0.22;;
71475;SDS011;59286;59.274;17.974;2022-08-25T14:31:04;1.92;;;0.40;;
71475;SDS011;59286;59.274;17.974;2022-08-25T14:33:34;1.80;;;0.40;;
71475;SDS011;59286;59.274;17.974;2022-08-25T14:36:02;1.00;;;0.30;;
71475;SDS011;59286;59.274;17.974;2022-08-25T14:38:30;1.13;;;0.40;;
71475;SDS011;59286;59.274;17.974;2022-08-25T14:40:55;1.13;;;0.50;;
71475;SDS011;59286;59.274;17.974;2022-08-25T14:43:21;1.75;;;0.50;;
71475;SDS011;59286;59.274;17.974;2022-08-25T14:45:47;0.75;;;0.43;;
71475;SDS011;59286;59.274;17.974;2022-08-25T14:48:18;1.30;;;0.40;;
71475;SDS011;59286;59.274;17.974;2022-08-25T14:50:57;1.13;;;0.45;;
71475;SDS011;59286;59.274;17.974;2022-08-25T14:53:24;1.75;;;0.40;;
71475;SDS011;59286;59.274;17.974;2022-08-25T14:55:49;3.30;;;0.50;;
71475;SDS011;59286;59.274;17.974;2022-08-25T14:58:18;1.77;;;0.50;;
71475;SDS011;59286;59.274;17.974;2022-08-25T15:00:44;1.35;;;0.35;;
71475;SDS011;59286;59.274;17.974;2022-08-25T15:03:16;1.15;;;0.30;;
71475;SDS011;59286;59.274;17.974;2022-08-25T15:05:54;1.35;;;0.52;;
71475;SDS011;59286;59.274;17.974;2022-08-25T15:08:19;1.63;;;0.40;;
71475;SDS011;59286;59.274;17.974;2022-08-25T15:11:03;1.27;;;0.40;;
71475;SDS011;59286;59.274;17.974;2022-08-25T15:13:29;2.17;;;0.60;;
71475;SDS011;59286;59.274;17.974;2022-08-25T15:15:54;2.25;;;0.50;;
71475;SDS011;59286;59.274;17.974;2022-08-25T15:18:20;1.73;;;0.52;;
71475;SDS011;59286;59.274;17.974;2022-08-25T15:20:46;1.95;;;0.40;;
71475;SDS011;59286;59.274;17.974;2022-08-25T15:23:12;1.85;;;0.50;;
71475;SDS011;59286;59.274;17.974;2022-08-25T15:25:37;2.63;;;0.40;;
71475;SDS011;59286;59.274;17.974;2022-08-25T15:28:07;0.95;;;0.47;;
71475;SDS011;59286;59.274;17.974;2022-08-25T15:30:33;1.05;;;0.50;;
71475;SDS011;59286;59.274;17.974;2022-08-25T15:32:59;2.22;;;0.38;;
71475;SDS011;59286;59.274;17.974;2022-08-25T15:35:26;1.10;;;0.35;;
71475;SDS011;59286;59.274;17.974;2022-08-25T15:37:51;0.75;;;0.40;;
71475;SDS011;59286;59.274;17.974;2022-08-25T15:40:17;2.38;;;0.30;;
71475;SDS011;59286;59.274;17.974;2022-08-25T15:42:42;1.23;;;0.50;;
71475;SDS011;59286;59.274;17.974;2022-08-25T15:45:08;1.42;;;0.50;;
71475;SDS011;59286;59.274;17.974;2022-08-25T15:47:35;1.52;;;0.50;;
71475;SDS011;59286;59.274;17.974;2022-08-25T15:50:11;0.45;;;0.30;;
71475;SDS011;59286;59.274;17.974;2022-08-25T15:52:41;1.10;;;0.40;;
71475;SDS011;59286;59.274;17.974;2022-08-25T15:55:07;2.13;;;0.60;;
71475;SDS011;59286;59.274;17.974;2022-08-25T15:57:33;1.38;;;0.40;;
71475;SDS011;59286;59.274;17.974;2022-08-25T16:00:01;0.60;;;0.35;;
71475;SDS011;59286;59.274;17.974;2022-08-25T16:02:28;1.20;;;0.50;;
71475;SDS011;59286;59.274;17.974;2022-08-25T16:04:53;1.65;;;0.47;;
71475;SDS011;59286;59.274;17.974;2022-08-25T16:07:19;1.83;;;0.68;;
71475;SDS011;59286;59.274;17.974;2022-08-25T16:09:45;0.73;;;0.40;;
71475;SDS011;59286;59.274;17.974;2022-08-25T16:12:11;0.60;;;0.30;;
71475;SDS011;59286;59.274;17.974;2022-08-25T16:14:37;1.83;;;0.38;;
71475;SDS011;59286;59.274;17.974;2022-08-25T16:17:03;2.13;;;0.68;;
71475;SDS011;59286;59.274;17.974;2022-08-25T16:19:30;0.50;;;0.32;;
71475;SDS011;59286;59.274;17.974;2022-08-25T16:21:56;0.82;;;0.30;;
71475;SDS011;59286;59.274;17.974;2022-08-25T16:24:22;2.00;;;0.50;;
71475;SDS011;59286;59.274;17.974;2022-08-25T16:26:49;0.43;;;0.35;;
71475;SDS011;59286;59.274;17.974;2022-08-25T16:29:15;2.95;;;0.40;;
71475;SDS011;59286;59.274;17.974;2022-08-25T16:31:41;1.63;;;0.50;;
71475;SDS011;59286;59.274;17.974;2022-08-25T16:34:07;2.67;;;0.50;;
71475;SDS011;59286;59.274;17.974;2022-08-25T16:36:33;1.92;;;0.30;;
71475;SDS011;59286;59.274;17.974;2022-08-25T16:39:00;0.88;;;0.50;;
71475;SDS011;59286;59.274;17.974;2022-08-25T16:41:31;2.15;;;0.35;;
71475;SDS011;59286;59.274;17.974;2022-08-25T16:44:01;1.95;;;0.50;;
71475;SDS011;59286;59.274;17.974;2022-08-25T16:46:30;2.47;;;0.40;;
71475;SDS011;59286;59.274;17.974;2022-08-25T16:48:58;1.42;;;0.40;;